sensor_id;sensor_type;location;lat;lon;timestamp;P1;durP1;ratioP1;P2;durP2;ratioP2
1164;SDS011;571;50.930;6.926;2023-10-08T02:45:44;6.80;;;4.93;;
1164;SDS011;571;50.930;6.926;2023-10-08T02:48:12;4.80;;;3.57;;
1164;SDS011;571;50.930;6.926;2023-10-08T02:50:41;6.73;;;3.80;;
1164;SDS011;571;50.930;6.926;2023-10-08T02:53:10;8.10;;;3.73;;
1164;SDS011;571;50.930;6.926;2023-10-08T02:55:37;6.63;;;3.77;;
1164;SDS011;571;50.930;6.926;2023-10-08T02:58:09;10.33;;;4.50;;
1164;SDS011;571;50.930;6.926;2023-10-08T03:00:39;5.80;;;3.50;;
1164;SDS011;571;50.930;6.926;2023-10-08T03:03:08;4.93;;;3.97;;
1164;SDS011;571;50.930;6.926;2023-10-08T03:05:41;5.50;;;4.37;;
1164;SDS011;571;50.930;6.926;2023-10-08T03:08:11;5.63;;;4.20;;
1164;SDS011;571;50.930;6.926;2023-10-08T03:10:38;6.60;;;3.70;;
1164;SDS011;571;50.930;6.926;2023-10-08T03:13:06;6.30;;;3.50;;
1164;SDS011;571;50.930;6.926;2023-10-08T03:15:37;7.97;;;4.10;;
1164;SDS011;571;50.930;6.926;2023-10-08T03:18:13;6.03;;;3.77;;
1164;SDS011;571;50.930;6.926;2023-10-08T03:20:40;5.37;;;3.53;;
1164;SDS011;571;50.930;6.926;2023-10-08T03:23:09;6.57;;;4.83;;
1164;SDS011;571;50.930;6.926;2023-10-08T03:25:50;6.87;;;4.63;;
1164;SDS011;571;50.930;6.926;2023-10-08T03:28:22;6.90;;;4.47;;
1164;SDS011;571;50.930;6.926;2023-10-08T03:30:50;8.50;;;4.33;;
1164;SDS011;571;50.930;6.926;2023-10-08T03:33:22;5.90;;;3.50;;
1164;SDS011;571;50.930;6.926;2023-10-08T03:35:49;14.80;;;4.20;;
1164;SDS011;571;50.930;6.926;2023-10-08T03:38:19;8.93;;;5.33;;
1164;SDS011;571;50.930;6.926;2023-10-08T03:40:53;5.93;;;4.30;;
1164;SDS011;571;50.930;6.926;2023-10-08T03:43:28;4.73;;;3.53;;
1164;SDS011;571;50.930;6.926;2023-10-08T03:46:08;6.93;;;3.50;;
1164;SDS011;571;50.930;6.926;2023-10-08T03:48:41;6.83;;;3.93;;
1164;SDS011;571;50.930;6.926;2023-10-08T03:51:10;5.70;;;4.27;;
1164;SDS011;571;50.930;6.926;2023-10-08T03:53:37;8.20;;;4.57;;
1164;SDS011;571;50.930;6.926;2023-10-08T03:56:22;7.10;;;4.10;;
1164;SDS011;571;50.930;6.926;2023-10-08T03:58:50;6.27;;;3.67;;
1164;SDS011;571;50.930;6.926;2023-10-08T04:01:19;9.47;;;4.67;;
1164;SDS011;571;50.930;6.926;2023-10-08T04:03:47;8.23;;;4.13;;
1164;SDS011;571;50.930;6.926;2023-10-08T04:06:23;5.87;;;3.73;;
1164;SDS011;571;50.930;6.926;2023-10-08T04:08:55;7.93;;;4.43;;
1164;SDS011;571;50.930;6.926;2023-10-08T04:11:41;7.50;;;3.67;;
1164;SDS011;571;50.930;6.926;2023-10-08T04:14:17;12.77;;;4.70;;
1164;SDS011;571;50.930;6.926;2023-10-08T04:16:44;9.23;;;4.33;;
1164;SDS011;571;50.930;6.926;2023-10-08T04:19:13;8.20;;;4.17;;
1164;SDS011;571;50.930;6.926;2023-10-08T04:21:43;9.17;;;4.90;;
1164;SDS011;571;50.930;6.926;2023-10-08T04:24:10;4.43;;;3.53;;
1164;SDS011;571;50.930;6.926;2023-10-08T04:26:40;8.03;;;4.00;;
1164;SDS011;571;50.930;6.926;2023-10-08T04:29:07;7.10;;;4.00;;
1164;SDS011;571;50.930;6.926;2023-10-08T04:31:34;5.17;;;3.97;;
1164;SDS011;571;50.930;6.926;2023-10-08T04:34:09;7.53;;;4.40;;
1164;SDS011;571;50.930;6.926;2023-10-08T04:36:42;3.90;;;3.50;;
1164;SDS011;571;50.930;6.926;2023-10-08T04:39:10;6.33;;;3.80;;
1164;SDS011;571;50.930;6.926;2023-10-08T04:41:40;8.20;;;4.53;;
1164;SDS011;571;50.930;6.926;2023-10-08T04:44:08;5.00;;;4.23;;
1164;SDS011;571;50.930;6.926;2023-10-08T04:46:40;6.47;;;4.20;;
1164;SDS011;571;50.930;6.926;2023-10-08T04:49:17;7.60;;;4.57;;
1164;SDS011;571;50.930;6.926;2023-10-08T04:51:54;6.70;;;4.20;;
1164;SDS011;571;50.930;6.926;2023-10-08T04:54:24;6.23;;;3.90;;
1164;SDS011;571;50.930;6.926;2023-10-08T04:56:54;6.97;;;3.97;;
1164;SDS011;571;50.930;6.926;2023-10-08T04:59:23;6.23;;;3.50;;
1164;SDS011;571;50.930;6.926;2023-10-08T05:01:59;5.27;;;4.20;;
1164;SDS011;571;50.930;6.926;2023-10-08T05:04:44;5.90;;;4.10;;
1164;SDS011;571;50.930;6.926;2023-10-08T05:07:22;6.37;;;4.70;;
1164;SDS011;571;50.930;6.926;2023-10-08T05:10:03;6.27;;;4.17;;
1164;SDS011;571;50.930;6.926;2023-10-08T05:12:55;7.50;;;4.80;;
1164;SDS011;571;50.930;6.926;2023-10-08T05:15:40;5.57;;;3.50;;
1164;SDS011;571;50.930;6.926;2023-10-08T05:18:15;8.77;;;5.70;;
1164;SDS011;571;50.930;6.926;2023-10-08T05:20:48;7.60;;;4.67;;
1164;SDS011;571;50.930;6.926;2023-10-08T05:23:28;7.10;;;4.20;;
1164;SDS011;571;50.930;6.926;2023-10-08T05:26:12;8.50;;;4.97;;
1164;SDS011;571;50.930;6.926;2023-10-08T05:28:55;7.40;;;3.80;;
1164;SDS011;571;50.930;6.926;2023-10-08T05:31:26;8.07;;;4.00;;
1164;SDS011;571;50.930;6.926;2023-10-08T05:34:12;8.37;;;5.20;;
1164;SDS011;571;50.930;6.926;2023-10-08T05:36:43;5.30;;;4.00;;
1164;SDS011;571;50.930;6.926;2023-10-08T05:39:37;8.10;;;4.00;;
1164;SDS011;571;50.930;6.926;2023-10-08T05:42:07;6.90;;;4.17;;
1164;SDS011;571;50.930;6.926;2023-10-08T05:44:42;5.60;;;3.70;;
1164;SDS011;571;50.930;6.926;2023-10-08T05:47:11;4.93;;;3.53;;
1164;SDS011;571;50.930;6.926;2023-10-08T05:50:03;6.63;;;3.77;;
1164;SDS011;571;50.930;6.926;2023-10-08T05:52:56;9.53;;;4.70;;
1164;SDS011;571;50.930;6.926;2023-10-08T05:55:41;4.60;;;3.57;;
1164;SDS011;571;50.930;6.926;2023-10-08T05:58:12;10.73;;;4.20;;
1164;SDS011;571;50.930;6.926;2023-10-08T06:00:50;7.17;;;3.90;;
1164;SDS011;571;50.930;6.926;2023-10-08T06:03:33;12.70;;;5.47;;
1164;SDS011;571;50.930;6.926;2023-10-08T06:06:11;10.07;;;3.47;;
1164;SDS011;571;50.930;6.926;2023-10-08T06:09:00;10.60;;;4.90;;
1164;SDS011;571;50.930;6.926;2023-10-08T06:11:47;6.60;;;4.23;;
1164;SDS011;571;50.930;6.926;2023-10-08T06:14:34;9.53;;;4.40;;
1164;SDS011;571;50.930;6.926;2023-10-08T06:17:32;9.10;;;4.67;;
1164;SDS011;571;50.930;6.926;2023-10-08T06:20:17;8.80;;;3.83;;
1164;SDS011;571;50.930;6.926;2023-10-08T06:22:50;9.73;;;5.20;;
1164;SDS011;571;50.930;6.926;2023-10-08T06:25:26;6.40;;;4.00;;
1164;SDS011;571;50.930;6.926;2023-10-08T06:27:54;6.67;;;3.90;;
1164;SDS011;571;50.930;6.926;2023-10-08T06:30:22;6.37;;;3.80;;
1164;SDS011;571;50.930;6.926;2023-10-08T06:32:54;5.70;;;4.53;;
1164;SDS011;571;50.930;6.926;2023-10-08T06:35:21;5.53;;;3.40;;
1164;SDS011;571;50.930;6.926;2023-10-08T06:37:50;7.97;;;4.70;;
1164;SDS011;571;50.930;6.926;2023-10-08T06:40:21;6.23;;;4.60;;
1164;SDS011;571;50.930;6.926;2023-10-08T06:43:03;9.40;;;5.63;;
1164;SDS011;571;50.930;6.926;2023-10-08T06:45:37;9.23;;;4.40;;
1164;SDS011;571;50.930;6.926;2023-10-08T06:48:05;9.53;;;4.40;;
1164;SDS011;571;50.930;6.926;2023-10-08T06:50:33;7.43;;;4.77;;
1164;SDS011;571;50.930;6.926;2023-10-08T06:53:01;6.37;;;4.20;;
1164;SDS011;571;50.930;6.926;2023-10-08T06:55:32;7.33;;;4.30;;
1164;SDS011;571;50.930;6.926;2023-10-08T06:58:00;7.53;;;4.33;;
1164;SDS011;571;50.930;6.926;2023-10-08T07:00:33;6.17;;;4.27;;
1164;SDS011;571;50.930;6.926;2023-10-08T07:03:05;7.80;;;3.90;;
1164;SDS011;571;50.930;6.926;2023-10-08T07:05:33;12.97;;;4.40;;
1164;SDS011;571;50.930;6.926;2023-10-08T07:08:06;6.90;;;4.47;;
1164;SDS011;571;50.930;6.926;2023-10-08T07:10:34;7.50;;;4.37;;
1164;SDS011;571;50.930;6.926;2023-10-08T07:13:02;5.90;;;4.47;;
1164;SDS011;571;50.930;6.926;2023-10-08T07:15:33;8.70;;;4.40;;
1164;SDS011;571;50.930;6.926;2023-10-08T07:18:03;5.10;;;3.97;;
1164;SDS011;571;50.930;6.926;2023-10-08T07:20:35;8.63;;;4.43;;
1164;SDS011;571;50.930;6.926;2023-10-08T07:23:04;7.57;;;4.83;;
1164;SDS011;571;50.930;6.926;2023-10-08T07:25:43;8.47;;;5.10;;
1164;SDS011;571;50.930;6.926;2023-10-08T07:28:13;7.83;;;4.60;;
1164;SDS011;571;50.930;6.926;2023-10-08T07:30:40;8.20;;;4.17;;
1164;SDS011;571;50.930;6.926;2023-10-08T07:33:09;9.33;;;5.63;;
1164;SDS011;571;50.930;6.926;2023-10-08T07:35:42;10.53;;;4.43;;
1164;SDS011;571;50.930;6.926;2023-10-08T07:38:17;6.60;;;3.77;;
1164;SDS011;571;50.930;6.926;2023-10-08T07:40:43;9.00;;;4.47;;
1164;SDS011;571;50.930;6.926;2023-10-08T07:43:10;6.50;;;4.60;;
1164;SDS011;571;50.930;6.926;2023-10-08T07:45:40;10.00;;;4.67;;
1164;SDS011;571;50.930;6.926;2023-10-08T07:48:10;10.33;;;4.63;;
1164;SDS011;571;50.930;6.926;2023-10-08T07:50:40;8.00;;;4.90;;
1164;SDS011;571;50.930;6.926;2023-10-08T07:53:09;7.33;;;5.10;;
1164;SDS011;571;50.930;6.926;2023-10-08T07:55:43;13.80;;;5.20;;
1164;SDS011;571;50.930;6.926;2023-10-08T07:58:12;7.07;;;4.70;;
1164;SDS011;571;50.930;6.926;2023-10-08T08:00:42;11.37;;;4.90;;
1164;SDS011;571;50.930;6.926;2023-10-08T08:03:17;10.50;;;5.40;;
1164;SDS011;571;50.930;6.926;2023-10-08T08:05:44;8.70;;;4.93;;
1164;SDS011;571;50.930;6.926;2023-10-08T08:08:11;9.60;;;3.50;;
1164;SDS011;571;50.930;6.926;2023-10-08T08:10:42;7.07;;;5.10;;
1164;SDS011;571;50.930;6.926;2023-10-08T08:13:10;8.90;;;4.23;;
1164;SDS011;571;50.930;6.926;2023-10-08T08:15:38;15.07;;;5.37;;
1164;SDS011;571;50.930;6.926;2023-10-08T08:18:09;12.80;;;6.07;;
1164;SDS011;571;50.930;6.926;2023-10-08T08:20:47;11.37;;;5.77;;
1164;SDS011;571;50.930;6.926;2023-10-08T08:23:16;8.30;;;4.60;;
1164;SDS011;571;50.930;6.926;2023-10-08T08:25:43;7.87;;;4.87;;
1164;SDS011;571;50.930;6.926;2023-10-08T08:28:30;8.50;;;5.07;;
1164;SDS011;571;50.930;6.926;2023-10-08T08:31:01;13.50;;;5.00;;
1164;SDS011;571;50.930;6.926;2023-10-08T08:33:30;11.73;;;5.37;;
1164;SDS011;571;50.930;6.926;2023-10-08T08:36:17;7.20;;;4.60;;
1164;SDS011;571;50.930;6.926;2023-10-08T08:38:44;11.00;;;4.80;;
1164;SDS011;571;50.930;6.926;2023-10-08T08:41:11;9.97;;;4.80;;
1164;SDS011;571;50.930;6.926;2023-10-08T08:43:38;6.93;;;5.40;;
1164;SDS011;571;50.930;6.926;2023-10-08T08:46:08;10.03;;;5.10;;
1164;SDS011;571;50.930;6.926;2023-10-08T08:48:39;10.70;;;5.23;;
1164;SDS011;571;50.930;6.926;2023-10-08T08:51:07;7.97;;;5.47;;
1164;SDS011;571;50.930;6.926;2023-10-08T08:53:35;11.00;;;5.40;;
1164;SDS011;571;50.930;6.926;2023-10-08T08:56:02;12.50;;;5.40;;
1164;SDS011;571;50.930;6.926;2023-10-08T08:58:32;11.20;;;5.60;;
1164;SDS011;571;50.930;6.926;2023-10-08T09:01:00;7.57;;;5.20;;
1164;SDS011;571;50.930;6.926;2023-10-08T09:03:28;8.10;;;5.17;;
1164;SDS011;571;50.930;6.926;2023-10-08T09:05:57;6.97;;;5.93;;
1164;SDS011;571;50.930;6.926;2023-10-08T09:08:27;8.90;;;5.20;;
1164;SDS011;571;50.930;6.926;2023-10-08T09:10:56;8.23;;;5.67;;
1164;SDS011;571;50.930;6.926;2023-10-08T09:13:26;9.10;;;5.37;;
1164;SDS011;571;50.930;6.926;2023-10-08T09:15:56;8.40;;;5.23;;
1164;SDS011;571;50.930;6.926;2023-10-08T09:18:28;11.50;;;5.67;;
1164;SDS011;571;50.930;6.926;2023-10-08T09:21:00;11.23;;;5.67;;
1164;SDS011;571;50.930;6.926;2023-10-08T09:23:36;16.33;;;5.60;;
1164;SDS011;571;50.930;6.926;2023-10-08T09:26:08;11.40;;;6.00;;
1164;SDS011;571;50.930;6.926;2023-10-08T09:28:35;8.50;;;5.30;;
1164;SDS011;571;50.930;6.926;2023-10-08T09:31:04;8.20;;;5.50;;
1164;SDS011;571;50.930;6.926;2023-10-08T09:33:31;12.93;;;6.40;;
1164;SDS011;571;50.930;6.926;2023-10-08T09:35:59;13.90;;;6.43;;
1164;SDS011;571;50.930;6.926;2023-10-08T09:38:29;15.33;;;6.60;;
1164;SDS011;571;50.930;6.926;2023-10-08T09:40:56;11.33;;;6.60;;
1164;SDS011;571;50.930;6.926;2023-10-08T09:43:24;10.00;;;7.00;;
1164;SDS011;571;50.930;6.926;2023-10-08T09:45:52;14.83;;;6.07;;
1164;SDS011;571;50.930;6.926;2023-10-08T09:48:22;15.80;;;6.73;;
1164;SDS011;571;50.930;6.926;2023-10-08T09:50:52;12.80;;;7.03;;
1164;SDS011;571;50.930;6.926;2023-10-08T09:53:24;17.13;;;7.77;;
1164;SDS011;571;50.930;6.926;2023-10-08T09:55:57;12.87;;;7.30;;
1164;SDS011;571;50.930;6.926;2023-10-08T09:58:26;15.57;;;7.47;;
1164;SDS011;571;50.930;6.926;2023-10-08T10:00:55;13.67;;;7.40;;
1164;SDS011;571;50.930;6.926;2023-10-08T10:03:23;18.30;;;8.17;;
1164;SDS011;571;50.930;6.926;2023-10-08T10:05:51;17.63;;;7.30;;
1164;SDS011;571;50.930;6.926;2023-10-08T10:08:24;14.97;;;7.20;;
1164;SDS011;571;50.930;6.926;2023-10-08T10:10:57;22.50;;;9.20;;
1164;SDS011;571;50.930;6.926;2023-10-08T10:13:27;11.33;;;6.50;;
1164;SDS011;571;50.930;6.926;2023-10-08T10:15:54;13.90;;;6.73;;
1164;SDS011;571;50.930;6.926;2023-10-08T10:18:27;18.50;;;8.87;;
1164;SDS011;571;50.930;6.926;2023-10-08T10:20:57;14.53;;;6.77;;
1164;SDS011;571;50.930;6.926;2023-10-08T10:23:36;16.90;;;7.40;;
1164;SDS011;571;50.930;6.926;2023-10-08T10:26:04;14.03;;;7.07;;
1164;SDS011;571;50.930;6.926;2023-10-08T10:28:50;12.43;;;7.27;;
1164;SDS011;571;50.930;6.926;2023-10-08T10:31:46;13.53;;;7.47;;
1164;SDS011;571;50.930;6.926;2023-10-08T10:34:16;15.87;;;8.20;;
1164;SDS011;571;50.930;6.926;2023-10-08T10:36:45;17.33;;;8.30;;
1164;SDS011;571;50.930;6.926;2023-10-08T10:39:15;15.93;;;8.10;;
1164;SDS011;571;50.930;6.926;2023-10-08T10:41:51;14.60;;;7.93;;
1164;SDS011;571;50.930;6.926;2023-10-08T10:44:22;14.80;;;6.63;;
1164;SDS011;571;50.930;6.926;2023-10-08T10:46:50;22.43;;;9.17;;
1164;SDS011;571;50.930;6.926;2023-10-08T10:49:16;20.63;;;10.00;;
1164;SDS011;571;50.930;6.926;2023-10-08T10:51:47;12.60;;;6.93;;
1164;SDS011;571;50.930;6.926;2023-10-08T10:54:14;20.23;;;8.80;;
1164;SDS011;571;50.930;6.926;2023-10-08T10:56:48;15.13;;;7.57;;
1164;SDS011;571;50.930;6.926;2023-10-08T10:59:28;15.20;;;7.20;;
1164;SDS011;571;50.930;6.926;2023-10-08T11:02:02;18.53;;;7.00;;
1164;SDS011;571;50.930;6.926;2023-10-08T11:04:35;18.80;;;8.07;;
1164;SDS011;571;50.930;6.926;2023-10-08T11:07:12;17.77;;;7.87;;
1164;SDS011;571;50.930;6.926;2023-10-08T11:09:42;13.27;;;7.33;;
1164;SDS011;571;50.930;6.926;2023-10-08T11:12:10;18.37;;;7.37;;
1164;SDS011;571;50.930;6.926;2023-10-08T11:14:45;19.20;;;9.20;;
1164;SDS011;571;50.930;6.926;2023-10-08T11:17:13;19.40;;;8.50;;
1164;SDS011;571;50.930;6.926;2023-10-08T11:19:47;16.67;;;7.80;;
1164;SDS011;571;50.930;6.926;2023-10-08T11:22:16;19.57;;;9.03;;
1164;SDS011;571;50.930;6.926;2023-10-08T11:24:45;15.83;;;8.30;;
1164;SDS011;571;50.930;6.926;2023-10-08T11:27:13;15.57;;;8.10;;
1164;SDS011;571;50.930;6.926;2023-10-08T11:29:42;12.93;;;8.87;;
1164;SDS011;571;50.930;6.926;2023-10-08T11:32:10;16.77;;;9.30;;
1164;SDS011;571;50.930;6.926;2023-10-08T11:34:38;17.20;;;10.00;;
1164;SDS011;571;50.930;6.926;2023-10-08T11:37:04;14.33;;;8.53;;
1164;SDS011;571;50.930;6.926;2023-10-08T11:39:46;20.20;;;9.70;;
1164;SDS011;571;50.930;6.926;2023-10-08T11:42:13;20.67;;;9.80;;
1164;SDS011;571;50.930;6.926;2023-10-08T11:45:05;19.90;;;9.27;;
1164;SDS011;571;50.930;6.926;2023-10-08T11:47:44;19.17;;;10.37;;
1164;SDS011;571;50.930;6.926;2023-10-08T11:50:13;17.73;;;9.30;;
1164;SDS011;571;50.930;6.926;2023-10-08T11:52:44;18.53;;;12.40;;
1164;SDS011;571;50.930;6.926;2023-10-08T11:55:12;18.27;;;11.47;;
1164;SDS011;571;50.930;6.926;2023-10-08T11:57:44;20.27;;;10.60;;
1164;SDS011;571;50.930;6.926;2023-10-08T12:00:14;16.77;;;11.20;;
1164;SDS011;571;50.930;6.926;2023-10-08T12:02:50;18.50;;;13.27;;
1164;SDS011;571;50.930;6.926;2023-10-08T12:05:19;22.43;;;13.17;;
1164;SDS011;571;50.930;6.926;2023-10-08T12:07:48;27.70;;;12.33;;
1164;SDS011;571;50.930;6.926;2023-10-08T12:10:17;22.50;;;12.23;;
1164;SDS011;571;50.930;6.926;2023-10-08T12:12:47;17.47;;;13.33;;
1164;SDS011;571;50.930;6.926;2023-10-08T12:15:17;23.07;;;12.33;;
1164;SDS011;571;50.930;6.926;2023-10-08T12:17:46;20.00;;;12.97;;
1164;SDS011;571;50.930;6.926;2023-10-08T12:20:33;23.07;;;12.60;;
1164;SDS011;571;50.930;6.926;2023-10-08T12:23:02;19.70;;;11.13;;
1164;SDS011;571;50.930;6.926;2023-10-08T12:25:31;23.03;;;11.77;;
1164;SDS011;571;50.930;6.926;2023-10-08T12:27:58;18.50;;;11.50;;
1164;SDS011;571;50.930;6.926;2023-10-08T12:30:27;14.37;;;8.90;;
1164;SDS011;571;50.930;6.926;2023-10-08T12:32:56;21.43;;;12.37;;
1164;SDS011;571;50.930;6.926;2023-10-08T12:35:24;16.43;;;11.20;;
1164;SDS011;571;50.930;6.926;2023-10-08T12:37:51;16.13;;;10.03;;
1164;SDS011;571;50.930;6.926;2023-10-08T12:40:19;14.10;;;10.30;;
1164;SDS011;571;50.930;6.926;2023-10-08T12:42:49;19.23;;;12.57;;
1164;SDS011;571;50.930;6.926;2023-10-08T12:45:16;19.43;;;11.10;;
1164;SDS011;571;50.930;6.926;2023-10-08T12:47:46;22.27;;;10.73;;
1164;SDS011;571;50.930;6.926;2023-10-08T12:50:16;19.50;;;10.53;;
1164;SDS011;571;50.930;6.926;2023-10-08T12:52:49;19.70;;;10.70;;
1164;SDS011;571;50.930;6.926;2023-10-08T12:55:20;17.80;;;11.30;;
1164;SDS011;571;50.930;6.926;2023-10-08T12:57:51;17.80;;;11.10;;
1164;SDS011;571;50.930;6.926;2023-10-08T13:00:21;16.53;;;12.03;;
1164;SDS011;571;50.930;6.926;2023-10-08T13:02:49;15.93;;;11.80;;
1164;SDS011;571;50.930;6.926;2023-10-08T13:05:18;16.90;;;11.87;;
1164;SDS011;571;50.930;6.926;2023-10-08T13:07:52;22.40;;;12.30;;
1164;SDS011;571;50.930;6.926;2023-10-08T13:10:20;17.20;;;11.00;;
1164;SDS011;571;50.930;6.926;2023-10-08T13:12:47;20.63;;;11.70;;
1164;SDS011;571;50.930;6.926;2023-10-08T13:15:16;17.67;;;10.47;;
1164;SDS011;571;50.930;6.926;2023-10-08T13:17:43;19.90;;;11.77;;
1164;SDS011;571;50.930;6.926;2023-10-08T13:20:11;18.17;;;10.57;;
1164;SDS011;571;50.930;6.926;2023-10-08T13:22:38;19.63;;;11.70;;
1164;SDS011;571;50.930;6.926;2023-10-08T13:25:05;17.13;;;11.50;;
1164;SDS011;571;50.930;6.926;2023-10-08T13:27:33;15.47;;;10.93;;
1164;SDS011;571;50.930;6.926;2023-10-08T13:30:04;16.77;;;11.23;;
1164;SDS011;571;50.930;6.926;2023-10-08T13:32:35;14.97;;;11.13;;
1164;SDS011;571;50.930;6.926;2023-10-08T13:35:02;16.30;;;11.87;;
1164;SDS011;571;50.930;6.926;2023-10-08T13:37:31;19.00;;;12.10;;
1164;SDS011;571;50.930;6.926;2023-10-08T13:39:58;19.33;;;10.50;;
1164;SDS011;571;50.930;6.926;2023-10-08T13:42:25;16.00;;;9.90;;
1164;SDS011;571;50.930;6.926;2023-10-08T13:44:52;21.17;;;11.70;;
1164;SDS011;571;50.930;6.926;2023-10-08T13:47:19;17.43;;;11.20;;
1164;SDS011;571;50.930;6.926;2023-10-08T13:49:51;15.20;;;10.70;;
1164;SDS011;571;50.930;6.926;2023-10-08T13:52:18;18.07;;;10.77;;
1164;SDS011;571;50.930;6.926;2023-10-08T13:54:51;18.43;;;12.63;;
1164;SDS011;571;50.930;6.926;2023-10-08T13:57:18;24.33;;;10.80;;
1164;SDS011;571;50.930;6.926;2023-10-08T13:59:45;21.47;;;11.77;;
1164;SDS011;571;50.930;6.926;2023-10-08T14:02:13;18.83;;;11.57;;
1164;SDS011;571;50.930;6.926;2023-10-08T14:04:40;20.60;;;11.03;;
1164;SDS011;571;50.930;6.926;2023-10-08T14:07:09;18.37;;;10.93;;
1164;SDS011;571;50.930;6.926;2023-10-08T14:09:41;15.43;;;10.90;;
1164;SDS011;571;50.930;6.926;2023-10-08T14:12:10;16.03;;;10.90;;
1164;SDS011;571;50.930;6.926;2023-10-08T14:14:38;18.83;;;12.00;;
1164;SDS011;571;50.930;6.926;2023-10-08T14:17:08;16.23;;;9.30;;
1164;SDS011;571;50.930;6.926;2023-10-08T14:19:39;18.03;;;11.20;;
1164;SDS011;571;50.930;6.926;2023-10-08T14:22:13;19.20;;;11.53;;
1164;SDS011;571;50.930;6.926;2023-10-08T14:24:40;24.93;;;12.50;;
1164;SDS011;571;50.930;6.926;2023-10-08T14:27:09;17.70;;;11.40;;
1164;SDS011;571;50.930;6.926;2023-10-08T14:29:36;18.10;;;11.10;;
1164;SDS011;571;50.930;6.926;2023-10-08T14:32:06;15.50;;;10.20;;
1164;SDS011;571;50.930;6.926;2023-10-08T14:34:34;17.07;;;11.33;;
1164;SDS011;571;50.930;6.926;2023-10-08T14:37:20;17.57;;;10.27;;
1164;SDS011;571;50.930;6.926;2023-10-08T14:40:05;18.17;;;12.27;;
1164;SDS011;571;50.930;6.926;2023-10-08T14:42:50;16.10;;;10.60;;
1164;SDS011;571;50.930;6.926;2023-10-08T14:45:21;21.43;;;11.10;;
1164;SDS011;571;50.930;6.926;2023-10-08T14:47:51;16.37;;;10.50;;
1164;SDS011;571;50.930;6.926;2023-10-08T14:50:19;18.97;;;10.90;;
1164;SDS011;571;50.930;6.926;2023-10-08T14:52:48;18.70;;;10.27;;
1164;SDS011;571;50.930;6.926;2023-10-08T14:55:17;19.23;;;12.30;;
1164;SDS011;571;50.930;6.926;2023-10-08T14:57:46;18.33;;;10.43;;
1164;SDS011;571;50.930;6.926;2023-10-08T15:00:13;22.73;;;10.57;;
1164;SDS011;571;50.930;6.926;2023-10-08T15:02:40;21.80;;;12.00;;
1164;SDS011;571;50.930;6.926;2023-10-08T15:05:07;16.47;;;10.07;;
1164;SDS011;571;50.930;6.926;2023-10-08T15:07:36;16.50;;;10.60;;
1164;SDS011;571;50.930;6.926;2023-10-08T15:10:05;22.33;;;12.10;;
1164;SDS011;571;50.930;6.926;2023-10-08T15:12:34;18.03;;;11.20;;
1164;SDS011;571;50.930;6.926;2023-10-08T15:15:01;18.47;;;11.27;;
1164;SDS011;571;50.930;6.926;2023-10-08T15:17:37;16.60;;;8.90;;
1164;SDS011;571;50.930;6.926;2023-10-08T15:20:05;14.30;;;10.37;;
1164;SDS011;571;50.930;6.926;2023-10-08T15:22:33;20.43;;;11.67;;
1164;SDS011;571;50.930;6.926;2023-10-08T15:25:00;16.07;;;11.93;;
1164;SDS011;571;50.930;6.926;2023-10-08T15:27:28;20.73;;;11.30;;
1164;SDS011;571;50.930;6.926;2023-10-08T15:29:56;21.53;;;10.83;;
1164;SDS011;571;50.930;6.926;2023-10-08T15:32:23;16.50;;;10.20;;
1164;SDS011;571;50.930;6.926;2023-10-08T15:34:50;22.83;;;9.90;;
1164;SDS011;571;50.930;6.926;2023-10-08T15:37:17;16.30;;;10.10;;
1164;SDS011;571;50.930;6.926;2023-10-08T15:39:43;22.10;;;10.67;;
1164;SDS011;571;50.930;6.926;2023-10-08T15:42:11;15.77;;;10.20;;
1164;SDS011;571;50.930;6.926;2023-10-08T15:44:40;17.50;;;11.67;;
1164;SDS011;571;50.930;6.926;2023-10-08T15:47:07;15.30;;;10.87;;
1164;SDS011;571;50.930;6.926;2023-10-08T15:49:34;17.47;;;9.83;;
1164;SDS011;571;50.930;6.926;2023-10-08T15:52:01;18.20;;;10.77;;
1164;SDS011;571;50.930;6.926;2023-10-08T15:54:27;13.57;;;10.43;;
1164;SDS011;571;50.930;6.926;2023-10-08T15:56:54;25.30;;;12.03;;
1164;SDS011;571;50.930;6.926;2023-10-08T15:59:21;19.57;;;11.67;;
1164;SDS011;571;50.930;6.926;2023-10-08T16:01:49;15.10;;;11.47;;
1164;SDS011;571;50.930;6.926;2023-10-08T16:04:16;17.13;;;9.40;;
1164;SDS011;571;50.930;6.926;2023-10-08T16:06:42;13.50;;;9.77;;
1164;SDS011;571;50.930;6.926;2023-10-08T16:09:09;16.80;;;9.80;;
1164;SDS011;571;50.930;6.926;2023-10-08T16:11:36;12.87;;;10.20;;
1164;SDS011;571;50.930;6.926;2023-10-08T16:14:03;20.67;;;11.20;;
1164;SDS011;571;50.930;6.926;2023-10-08T16:16:30;22.23;;;11.87;;
1164;SDS011;571;50.930;6.926;2023-10-08T16:18:58;15.10;;;10.30;;
1164;SDS011;571;50.930;6.926;2023-10-08T16:21:25;19.90;;;10.90;;
1164;SDS011;571;50.930;6.926;2023-10-08T16:23:53;17.30;;;10.17;;
1164;SDS011;571;50.930;6.926;2023-10-08T16:26:22;23.10;;;11.27;;
1164;SDS011;571;50.930;6.926;2023-10-08T16:28:49;16.30;;;11.63;;
1164;SDS011;571;50.930;6.926;2023-10-08T16:31:16;20.07;;;12.17;;
1164;SDS011;571;50.930;6.926;2023-10-08T16:33:43;18.73;;;10.80;;
1164;SDS011;571;50.930;6.926;2023-10-08T16:36:11;17.53;;;12.13;;
1164;SDS011;571;50.930;6.926;2023-10-08T16:38:40;19.83;;;10.37;;
1164;SDS011;571;50.930;6.926;2023-10-08T16:41:07;15.73;;;10.87;;
1164;SDS011;571;50.930;6.926;2023-10-08T16:43:37;15.00;;;10.10;;
1164;SDS011;571;50.930;6.926;2023-10-08T16:46:04;19.27;;;10.30;;
1164;SDS011;571;50.930;6.926;2023-10-08T16:48:30;23.40;;;13.70;;
1164;SDS011;571;50.930;6.926;2023-10-08T16:50:57;20.83;;;11.87;;
1164;SDS011;571;50.930;6.926;2023-10-08T16:53:28;15.70;;;9.00;;
1164;SDS011;571;50.930;6.926;2023-10-08T16:55:55;17.47;;;10.77;;
1164;SDS011;571;50.930;6.926;2023-10-08T16:58:22;17.03;;;10.70;;
1164;SDS011;571;50.930;6.926;2023-10-08T17:00:51;14.97;;;10.13;;
1164;SDS011;571;50.930;6.926;2023-10-08T17:03:18;15.40;;;11.13;;
1164;SDS011;571;50.930;6.926;2023-10-08T17:05:46;16.20;;;10.40;;
1164;SDS011;571;50.930;6.926;2023-10-08T17:08:13;21.33;;;11.27;;
1164;SDS011;571;50.930;6.926;2023-10-08T17:10:43;15.60;;;11.33;;
1164;SDS011;571;50.930;6.926;2023-10-08T17:13:10;16.87;;;10.67;;
1164;SDS011;571;50.930;6.926;2023-10-08T17:15:38;20.60;;;11.10;;
1164;SDS011;571;50.930;6.926;2023-10-08T17:18:05;17.23;;;11.73;;
1164;SDS011;571;50.930;6.926;2023-10-08T17:20:36;17.50;;;12.00;;
1164;SDS011;571;50.930;6.926;2023-10-08T17:23:03;19.87;;;10.73;;
1164;SDS011;571;50.930;6.926;2023-10-08T17:25:31;15.90;;;10.97;;
1164;SDS011;571;50.930;6.926;2023-10-08T17:27:59;17.10;;;11.20;;
1164;SDS011;571;50.930;6.926;2023-10-08T17:30:27;13.23;;;10.30;;
1164;SDS011;571;50.930;6.926;2023-10-08T17:32:54;22.53;;;11.40;;
1164;SDS011;571;50.930;6.926;2023-10-08T17:35:21;15.80;;;12.33;;
1164;SDS011;571;50.930;6.926;2023-10-08T17:37:48;20.37;;;12.30;;
1164;SDS011;571;50.930;6.926;2023-10-08T17:40:17;22.53;;;12.73;;
1164;SDS011;571;50.930;6.926;2023-10-08T17:42:47;18.60;;;11.97;;
1164;SDS011;571;50.930;6.926;2023-10-08T17:45:15;21.27;;;12.70;;
1164;SDS011;571;50.930;6.926;2023-10-08T17:47:48;23.43;;;12.87;;
1164;SDS011;571;50.930;6.926;2023-10-08T17:50:16;17.50;;;11.67;;
1164;SDS011;571;50.930;6.926;2023-10-08T17:52:43;20.03;;;13.47;;
1164;SDS011;571;50.930;6.926;2023-10-08T17:55:11;26.80;;;13.23;;
1164;SDS011;571;50.930;6.926;2023-10-08T17:57:41;23.83;;;13.03;;
1164;SDS011;571;50.930;6.926;2023-10-08T18:00:08;17.17;;;11.90;;
1164;SDS011;571;50.930;6.926;2023-10-08T18:02:38;19.63;;;13.17;;
1164;SDS011;571;50.930;6.926;2023-10-08T18:05:06;20.53;;;13.87;;
1164;SDS011;571;50.930;6.926;2023-10-08T18:07:40;16.70;;;12.33;;
1164;SDS011;571;50.930;6.926;2023-10-08T18:10:08;16.60;;;12.27;;
1164;SDS011;571;50.930;6.926;2023-10-08T18:12:37;19.93;;;12.87;;
1164;SDS011;571;50.930;6.926;2023-10-08T18:15:04;19.97;;;12.93;;
1164;SDS011;571;50.930;6.926;2023-10-08T18:17:34;23.03;;;12.17;;
1164;SDS011;571;50.930;6.926;2023-10-08T18:20:03;22.20;;;14.20;;
1164;SDS011;571;50.930;6.926;2023-10-08T18:22:36;20.30;;;12.77;;